Main page
METAR-TAF:

METAR-TAF

Airports :

London City Airport

London, England

latitude: 51-30N, longitude: 000-03E, elevation: 5 m

Current weather observation

The report was made 19 minutes ago, at 09:50 UTC
Wind 9 kt from the Southwest, varying between South and West
Temperature 20°C
Humidity 56%
Pressure 997 hPa
Visibility 10 km or more

METAR: EGLC 090950Z AUTO 22009KT 190V260 9999 NCD 20/11 Q0997

Time: 11:09 (10:09 UTC)

Forecast

The report was made 2 hours and 2 minutes ago, at 08:07 UTC
Forecast valid from 09 at 09 UTC to 09 at 18 UTC
Wind 10 kt from the South/Southwest
Visibility 10 km or more
Few clouds at a height of 4000 ft
Probability 30%
from 09 at 17 UTC to 09 at 18 UTC
Wind 8 kt from the Southeast

TAF: EGLC 090807Z 0909/0918 20010KT 9999 FEW040 PROB30 0917/0918 14008KT

Weather observations and forecasts of more than 4000 airports (METAR and TAF reports).

The available stations are represented by yellow and red dots on the map.

Hover mouse over dot to see the name of the station.

Then click to see weather observations and forecasts.

To change the map : click on the green buttons with a black cross to zoom in, on the green button with a dash to zoom out, or on the green arrows for adjacent maps.


METAR-TAF: